CFG6PK LGRP-EDDM
Flight info
| Callsign | CFG6PK |
|---|---|
| Flight time | N/A |
| Altitude | 38000 |
| Route | VANES UM601 ADESO UN133 RIGRO DCT ESOPO DCT FSK UL608 DISOR DCT LONTA UL608 DOLEV DCT GORPA DCT RASTA DCT REDBU Q112 NAPSA NAPSA4A |
| Aircraft | A320/M-SDE3FGHIJ1LORVWXYZ/S |
Departure
| Time | N/A |
|---|---|
| Airport | Rhodes International Airport "Diagoras" (LGRP) |
Arrival
| Time | 2026-05-04 20:34 |
|---|---|
| Airport | Munich Airport (EDDM) |
| Time | Latitude | Longitude | Altitude | Speed | Heading |
|---|---|---|---|---|---|
| 2026-05-04 20:12 | 47.41554 | 13.47646 | 38002 ft | 447 kts | 319° |
| 2026-05-04 20:13 | 47.43974 | 13.44767 | 37992 ft | 447 kts | 319° |
| 2026-05-04 20:13 | 47.49177 | 13.38575 | 37979 ft | 447 kts | 319° |
| 2026-05-04 20:14 | 47.53999 | 13.32776 | 37957 ft | 447 kts | 319° |
| 2026-05-04 20:14 | 47.58799 | 13.26933 | 37950 ft | 447 kts | 319° |
| 2026-05-04 20:15 | 47.63597 | 13.21083 | 37929 ft | 447 kts | 319° |
| 2026-05-04 20:15 | 47.68401 | 13.15229 | 37729 ft | 445 kts | 318° |
| 2026-05-04 20:15 | 47.70790 | 13.12315 | 36777 ft | 446 kts | 318° |
| 2026-05-04 20:16 | 47.73196 | 13.09375 | 35742 ft | 449 kts | 318° |
| 2026-05-04 20:16 | 47.75610 | 13.06417 | 34688 ft | 452 kts | 317° |
| 2026-05-04 20:16 | 47.78041 | 13.03431 | 33566 ft | 455 kts | 317° |
| 2026-05-04 20:16 | 47.80486 | 13.00423 | 32300 ft | 458 kts | 318° |
| 2026-05-04 20:17 | 47.82955 | 12.97389 | 31018 ft | 461 kts | 318° |
| 2026-05-04 20:17 | 47.85404 | 12.94382 | 29691 ft | 464 kts | 318° |
| 2026-05-04 20:17 | 47.87899 | 12.91314 | 28100 ft | 467 kts | 319° |
| 2026-05-04 20:17 | 47.90404 | 12.88225 | 26473 ft | 470 kts | 319° |
| 2026-05-04 20:18 | 47.92930 | 12.85102 | 24782 ft | 473 kts | 318° |
| 2026-05-04 20:18 | 47.95261 | 12.81650 | 23433 ft | 469 kts | 309° |
| 2026-05-04 20:18 | 47.97172 | 12.77778 | 22215 ft | 460 kts | 301° |
| 2026-05-04 20:18 | 47.98803 | 12.73719 | 21073 ft | 453 kts | 299° |
| 2026-05-04 20:19 | 48.00406 | 12.69709 | 20011 ft | 446 kts | 299° |
| 2026-05-04 20:19 | 48.01983 | 12.65755 | 19018 ft | 440 kts | 299° |
| 2026-05-04 20:19 | 48.03530 | 12.61861 | 18069 ft | 434 kts | 299° |
| 2026-05-04 20:19 | 48.05058 | 12.58004 | 17032 ft | 428 kts | 298° |
| 2026-05-04 20:20 | 48.06569 | 12.54205 | 16184 ft | 421 kts | 298° |
| 2026-05-04 20:20 | 48.08035 | 12.50543 | 16021 ft | 399 kts | 298° |
| 2026-05-04 20:20 | 48.09360 | 12.47009 | 15777 ft | 380 kts | 291° |
| 2026-05-04 20:20 | 48.10010 | 12.43283 | 15306 ft | 366 kts | 276° |
| 2026-05-04 20:21 | 48.10341 | 12.39524 | 14683 ft | 362 kts | 275° |
| 2026-05-04 20:21 | 48.10659 | 12.35811 | 14060 ft | 359 kts | 275° |
| 2026-05-04 20:21 | 48.11299 | 12.28472 | 12713 ft | 352 kts | 275° |
| 2026-05-04 20:22 | 48.11504 | 12.26076 | 12261 ft | 350 kts | 275° |
| 2026-05-04 20:22 | 48.11808 | 12.22471 | 11577 ft | 347 kts | 275° |
| 2026-05-04 20:22 | 48.12100 | 12.18908 | 10898 ft | 344 kts | 275° |
| 2026-05-04 20:22 | 48.12380 | 12.15432 | 10709 ft | 327 kts | 275° |
| 2026-05-04 20:23 | 48.12645 | 12.12142 | 10584 ft | 310 kts | 275° |
| 2026-05-04 20:23 | 48.12897 | 12.09022 | 10463 ft | 295 kts | 275° |
| 2026-05-04 20:23 | 48.13138 | 12.06026 | 10211 ft | 287 kts | 275° |
| 2026-05-04 20:23 | 48.13371 | 12.03075 | 9836 ft | 284 kts | 275° |
| 2026-05-04 20:24 | 48.13596 | 12.00150 | 9384 ft | 282 kts | 275° |
| 2026-05-04 20:24 | 48.13815 | 11.97233 | 8920 ft | 281 kts | 275° |
| 2026-05-04 20:24 | 48.14028 | 11.94336 | 8460 ft | 279 kts | 275° |
| 2026-05-04 20:24 | 48.14239 | 11.91449 | 7997 ft | 278 kts | 275° |
| 2026-05-04 20:25 | 48.14446 | 11.88578 | 7528 ft | 277 kts | 275° |
| 2026-05-04 20:25 | 48.14650 | 11.85726 | 7063 ft | 275 kts | 275° |
| 2026-05-04 20:25 | 48.14851 | 11.82888 | 6680 ft | 272 kts | 275° |
| 2026-05-04 20:25 | 48.15232 | 11.80094 | 6432 ft | 275 kts | 283° |
| 2026-05-04 20:26 | 48.15743 | 11.77342 | 6198 ft | 275 kts | 284° |
| 2026-05-04 20:26 | 48.16264 | 11.74591 | 5951 ft | 274 kts | 284° |
| 2026-05-04 20:26 | 48.16774 | 11.71880 | 5700 ft | 274 kts | 284° |
| 2026-05-04 20:26 | 48.17294 | 11.69104 | 5451 ft | 273 kts | 284° |
| 2026-05-04 20:27 | 48.17799 | 11.66405 | 5209 ft | 273 kts | 284° |
| 2026-05-04 20:27 | 48.18306 | 11.63674 | 5034 ft | 272 kts | 284° |
| 2026-05-04 20:27 | 48.18802 | 11.61008 | 5001 ft | 255 kts | 284° |
| 2026-05-04 20:27 | 48.19323 | 11.58560 | 5006 ft | 243 kts | 295° |
| 2026-05-04 20:28 | 48.20210 | 11.56408 | 5012 ft | 242 kts | 303° |
| 2026-05-04 20:28 | 48.21177 | 11.54340 | 5010 ft | 242 kts | 304° |
| 2026-05-04 20:28 | 48.22150 | 11.52286 | 5043 ft | 242 kts | 304° |
| 2026-05-04 20:28 | 48.23126 | 11.50231 | 5042 ft | 242 kts | 304° |
| 2026-05-04 20:29 | 48.24115 | 11.48187 | 5045 ft | 242 kts | 309° |
| 2026-05-04 20:29 | 48.25451 | 11.46747 | 5040 ft | 231 kts | 338° |
| 2026-05-04 20:29 | 48.26967 | 11.46167 | 5042 ft | 224 kts | 352° |
| 2026-05-04 20:29 | 48.28515 | 11.46023 | 5009 ft | 223 kts | 8° |
| 2026-05-04 20:30 | 48.29981 | 11.46725 | 5011 ft | 220 kts | 29° |
| 2026-05-04 20:30 | 48.31151 | 11.48082 | 4920 ft | 208 kts | 50° |
| 2026-05-04 20:30 | 48.31915 | 11.49861 | 4744 ft | 201 kts | 69° |
| 2026-05-04 20:30 | 48.32235 | 11.51867 | 4509 ft | 196 kts | 85° |
| 2026-05-04 20:31 | 48.32396 | 11.53896 | 4256 ft | 195 kts | 84° |
| 2026-05-04 20:31 | 48.32557 | 11.55920 | 4011 ft | 195 kts | 84° |
| 2026-05-04 20:31 | 48.32719 | 11.57951 | 3770 ft | 195 kts | 84° |
| 2026-05-04 20:31 | 48.32876 | 11.59939 | 3511 ft | 189 kts | 84° |
| 2026-05-04 20:32 | 48.33028 | 11.61862 | 3261 ft | 182 kts | 83° |
| 2026-05-04 20:32 | 48.33171 | 11.63677 | 3027 ft | 166 kts | 83° |
| 2026-05-04 20:32 | 48.33300 | 11.65310 | 2816 ft | 150 kts | 83° |
| 2026-05-04 20:32 | 48.33417 | 11.66801 | 2634 ft | 138 kts | 82° |
| 2026-05-04 20:33 | 48.33526 | 11.68196 | 2407 ft | 133 kts | 82° |
| 2026-05-04 20:33 | 48.33636 | 11.69606 | 2253 ft | 135 kts | 82° |
| 2026-05-04 20:33 | 48.33751 | 11.70985 | 2075 ft | 135 kts | 82° |
| 2026-05-04 20:33 | 48.33859 | 11.72401 | 1901 ft | 136 kts | 82° |
| 2026-05-04 20:34 | 48.33968 | 11.73804 | 1709 ft | 134 kts | 82° |
| 2026-05-04 20:34 | 48.34073 | 11.75188 | 1522 ft | 134 kts | 83° |
| 2026-05-04 20:34 | 48.34174 | 11.76455 | 1483 ft | 100 kts | 83° |
| 2026-05-04 20:34 | 48.34233 | 11.77237 | 1480 ft | 44 kts | 83° |
| 2026-05-04 20:35 | 48.34312 | 11.77527 | 1480 ft | 30 kts | 61° |
| 2026-05-04 20:35 | 48.34401 | 11.77710 | 1486 ft | 13 kts | 52° |
| 2026-05-04 20:35 | 48.34456 | 11.77817 | 1486 ft | 13 kts | 52° |
| 2026-05-04 20:35 | 48.34514 | 11.77935 | 1486 ft | 15 kts | 54° |
| 2026-05-04 20:36 | 48.34587 | 11.78063 | 1484 ft | 17 kts | 27° |
| 2026-05-04 20:36 | 48.34717 | 11.78056 | 1481 ft | 21 kts | 354° |
| 2026-05-04 20:36 | 48.34839 | 11.78037 | 1478 ft | 17 kts | 4° |
| 2026-05-04 20:36 | 48.34885 | 11.78180 | 1476 ft | 12 kts | 74° |
| 2026-05-04 20:37 | 48.34947 | 11.78233 | 1473 ft | 12 kts | 354° |
| 2026-05-04 20:37 | 48.35023 | 11.78218 | 1483 ft | 7 kts | 352° |
| 2026-05-04 20:37 | 48.35049 | 11.78252 | 1480 ft | 6 kts | 85° |
| 2026-05-04 20:37 | 48.35053 | 11.78312 | 1486 ft | 6 kts | 83° |
| 2026-05-04 20:38 | 48.35057 | 11.78353 | 1480 ft | 3 kts | 83° |
| 2026-05-04 20:38 | 48.35057 | 11.78360 | 1482 ft | 0 kts | 82° |